Fort Bent, Colorado
Current Conditions -  °F | °C
As of 2:53 PM on Friday 24 Oct 2014 (Local Time) from KLHX Reporting Station
Clear Clear  
Wind Chill: 86°   Ceiling: Unl
Heat Index: 86°   Visibility: 10mi
Dew Point: 28°   Wind: 6mph
Humidity: 12%   Direction: 210°SSW
Pressure: 30.08"   Gusts: NA
Location:  37.8368°N, 103.544°W
Report Text: KLHX 242053Z AUTO 21005KT 10SM CLR 30/M02 A3008 RMK AO2 SLP135 T03001022 56021
Loading
Personal Weather Stations






























Interactive Weather Map
Tropical Storm Tracking
New forecast layout! Learn more

10-Day Weather Forecast

Advertisements
Track Severe Weather on mobile